Time;durP1;ratioP1;P1;durP2;ratioP2;P2;SDS_P1;SDS_P2;PMS_P1;PMS_P2;Temp;Humidity;BMP_temperature;BMP_pressure;BME280_temperature;BME280_humidity;BME280_pressure;Samples;Min_cycle;Max_cycle;Signal;HPM_P1;HPM_P2
2024/01/13 00:02:13;;;;;;;91.88;20.88;;;4.90;58.70;;;;;;5039423;28;20209;-69
2024/01/13 00:04:42;;;;;;;86.30;22.25;;;4.90;58.80;;;;;;5076695;28;20350;-68
2024/01/13 00:07:10;;;;;;;64.75;21.55;;;4.90;58.80;;;;;;5058979;28;20123;-69
2024/01/13 00:09:39;;;;;;;85.20;23.33;;;4.90;58.70;;;;;;5057768;28;20139;-68
2024/01/13 00:12:08;;;;;;;67.63;23.48;;;4.90;58.80;;;;;;5065980;28;20044;-83
2024/01/13 00:14:36;;;;;;;80.50;23.67;;;4.90;58.90;;;;;;5056733;28;20753;-69
2024/01/13 00:17:06;;;;;;;65.28;21.58;;;4.90;58.80;;;;;;5062416;28;20170;-69
2024/01/13 00:19:34;;;;;;;81.18;22.83;;;4.90;58.80;;;;;;5056528;28;20072;-74
2024/01/13 00:22:03;;;;;;;73.13;23.20;;;4.90;58.80;;;;;;5059921;28;20063;-69
2024/01/13 00:24:31;;;;;;;68.75;20.02;;;4.90;58.80;;;;;;5056201;28;20060;-68
2024/01/13 00:27:00;;;;;;;72.20;21.15;;;4.90;58.70;;;;;;5064709;28;20076;-68
2024/01/13 00:29:28;;;;;;;68.20;20.65;;;4.90;58.70;;;;;;5061316;28;20078;-70
2024/01/13 00:31:57;;;;;;;71.85;21.48;;;4.90;58.80;;;;;;5049719;28;20055;-70
2024/01/13 00:34:27;;;;;;;78.90;19.77;;;4.90;58.80;;;;;;5058694;28;20132;-67
2024/01/13 00:36:56;;;;;;;81.30;22.52;;;4.90;58.80;;;;;;5067870;28;20059;-70
2024/01/13 00:39:24;;;;;;;72.13;19.35;;;4.90;58.80;;;;;;5064293;28;20064;-67
2024/01/13 00:41:53;;;;;;;77.60;23.55;;;4.90;58.80;;;;;;5067307;28;20108;-68
2024/01/13 00:44:22;;;;;;;74.78;22.08;;;4.90;58.80;;;;;;5084025;28;20048;-68
2024/01/13 00:46:50;;;;;;;86.82;22.20;;;4.90;58.80;;;;;;5061169;28;20063;-69
2024/01/13 00:49:19;;;;;;;78.38;21.65;;;4.90;58.80;;;;;;5075862;28;20048;-69
2024/01/13 00:51:49;;;;;;;76.35;23.02;;;4.90;58.90;;;;;;5057614;28;20646;-67
2024/01/13 00:54:17;;;;;;;86.78;23.70;;;5.00;58.90;;;;;;5054902;28;20061;-67
2024/01/13 00:56:45;;;;;;;86.55;22.60;;;5.00;58.90;;;;;;5073126;28;20067;-68
2024/01/13 00:59:14;;;;;;;97.82;24.33;;;5.00;59.10;;;;;;5053785;28;20056;-68
2024/01/13 01:01:46;;;;;;;84.35;25.42;;;5.00;58.80;;;;;;5054655;28;20458;-66
2024/01/13 01:04:14;;;;;;;72.22;23.35;;;5.00;58.70;;;;;;5056826;28;20076;-67
2024/01/13 01:06:42;;;;;;;83.97;20.58;;;5.00;58.80;;;;;;5059474;28;20118;-68
2024/01/13 01:09:12;;;;;;;78.60;26.70;;;5.10;58.90;;;;;;5061433;28;20131;-69
2024/01/13 01:11:42;;;;;;;64.65;19.50;;;5.10;58.80;;;;;;5049332;28;20072;-68
2024/01/13 01:14:11;;;;;;;87.32;26.40;;;5.10;58.80;;;;;;5048167;28;20052;-67
2024/01/13 01:16:39;;;;;;;87.35;27.58;;;5.10;58.70;;;;;;5061334;28;20182;-70
2024/01/13 01:19:08;;;;;;;91.43;22.63;;;5.20;59.10;;;;;;5058832;28;20060;-67
2024/01/13 01:21:36;;;;;;;93.05;21.90;;;5.20;58.70;;;;;;5057180;28;20518;-68
2024/01/13 01:24:05;;;;;;;73.03;20.95;;;5.20;58.70;;;;;;5060395;28;20147;-67
2024/01/13 01:26:37;;;;;;;94.93;20.73;;;5.20;58.70;;;;;;5067990;28;20146;-68
2024/01/13 01:29:06;;;;;;;66.63;21.02;;;5.20;58.70;;;;;;5059310;28;20076;-67
2024/01/13 01:31:34;;;;;;;58.85;18.98;;;5.20;59.00;;;;;;5062749;28;20075;-66
2024/01/13 01:34:03;;;;;;;91.22;21.60;;;5.20;58.70;;;;;;5053459;28;20079;-67
2024/01/13 01:36:31;;;;;;;70.18;19.80;;;5.20;58.70;;;;;;5065103;28;20048;-68
2024/01/13 01:38:59;;;;;;;70.60;20.40;;;5.20;58.70;;;;;;5056544;28;20115;-66
2024/01/13 01:41:28;;;;;;;75.05;19.60;;;5.30;58.70;;;;;;5060512;28;20480;-68
2024/01/13 01:43:58;;;;;;;76.55;20.95;;;5.30;58.60;;;;;;5036423;28;20033;-66
2024/01/13 01:46:27;;;;;;;65.45;18.17;;;5.30;58.60;;;;;;5039703;28;20057;-68
2024/01/13 01:48:58;;;;;;;57.60;21.33;;;5.30;58.60;;;;;;5038035;28;20071;-67
2024/01/13 01:51:29;;;;;;;73.32;18.00;;;5.30;58.90;;;;;;5039576;28;20183;-68
2024/01/13 01:53:58;;;;;;;57.42;17.95;;;5.30;58.60;;;;;;5053841;28;20041;-68
2024/01/13 01:56:29;;;;;;;64.25;19.17;;;5.30;58.70;;;;;;5047580;28;20128;-68
2024/01/13 01:58:59;;;;;;;71.13;21.95;;;5.30;58.60;;;;;;5041166;28;20552;-68
2024/01/13 02:01:33;;;;;;;65.60;18.00;;;5.30;58.60;;;;;;5039082;28;20491;-69
2024/01/13 02:04:02;;;;;;;68.43;21.77;;;5.30;59.00;;;;;;5028710;28;20107;-68
2024/01/13 02:06:31;;;;;;;55.40;17.83;;;5.30;58.60;;;;;;5032493;28;20135;-68
2024/01/13 02:09:00;;;;;;;69.75;21.55;;;5.30;58.60;;;;;;5034564;28;20053;-67
2024/01/13 02:11:28;;;;;;;58.28;21.15;;;5.30;58.60;;;;;;5026092;28;20053;-68
2024/01/13 02:13:59;;;;;;;59.05;16.10;;;5.30;58.60;;;;;;5013811;28;20073;-68
2024/01/13 02:16:28;;;;;;;65.38;18.98;;;5.30;58.70;;;;;;5036556;28;20052;-69
2024/01/13 02:18:56;;;;;;;44.22;13.07;;;5.20;58.60;;;;;;5042213;28;20041;-69
2024/01/13 02:21:24;;;;;;;59.20;18.15;;;5.20;58.60;;;;;;5034885;28;20065;-68
2024/01/13 02:23:54;;;;;;;61.10;17.50;;;5.10;58.70;;;;;;5036201;28;20050;-68
2024/01/13 02:26:22;;;;;;;60.75;16.85;;;5.10;58.70;;;;;;5036723;28;20067;-68
2024/01/13 02:28:51;;;;;;;52.83;18.00;;;5.10;58.70;;;;;;5046214;28;20086;-68
2024/01/13 02:31:19;;;;;;;61.05;17.92;;;5.10;58.70;;;;;;5047328;28;20057;-67
2024/01/13 02:33:51;;;;;;;44.25;15.18;;;5.10;58.80;;;;;;5038961;28;20869;-67
2024/01/13 02:36:22;;;;;;;42.17;13.20;;;5.10;58.70;;;;;;5040228;28;20060;-67
2024/01/13 02:38:51;;;;;;;50.95;17.70;;;5.10;58.70;;;;;;5034635;28;20461;-68
2024/01/13 02:41:22;;;;;;;45.85;14.60;;;5.10;59.30;;;;;;5043994;28;20065;-67
2024/01/13 02:43:50;;;;;;;64.57;17.60;;;5.10;58.70;;;;;;5036669;28;20084;-66
2024/01/13 02:46:19;;;;;;;61.85;15.15;;;5.10;58.80;;;;;;5042842;28;20057;-68
2024/01/13 02:48:52;;;;;;;43.70;14.07;;;5.10;58.80;;;;;;5033622;28;20137;-68
2024/01/13 02:51:20;;;;;;;45.30;15.85;;;5.10;58.90;;;;;;5038997;28;20101;-68
2024/01/13 02:53:50;;;;;;;44.35;16.45;;;5.10;59.50;;;;;;5032812;28;20700;-68
2024/01/13 02:56:21;;;;;;;43.60;19.25;;;5.10;59.40;;;;;;5034321;28;20072;-67
2024/01/13 02:58:49;;;;;;;64.90;19.00;;;5.10;58.70;;;;;;5038352;28;20752;-67
2024/01/13 03:01:18;;;;;;;34.75;12.57;;;5.10;58.70;;;;;;5042411;28;20060;-67
2024/01/13 03:03:49;;;;;;;44.90;15.82;;;5.10;58.70;;;;;;5035462;28;20821;-67
2024/01/13 03:06:22;;;;;;;43.90;13.98;;;5.20;58.80;;;;;;5033924;28;20063;-67
2024/01/13 03:08:53;;;;;;;61.67;15.98;;;5.20;58.70;;;;;;5036556;28;20053;-68
2024/01/13 03:11:24;;;;;;;59.40;15.52;;;5.20;58.60;;;;;;5035535;28;20057;-67
2024/01/13 03:13:55;;;;;;;40.55;15.68;;;5.20;58.60;;;;;;5032788;28;20059;-69
2024/01/13 03:16:24;;;;;;;53.00;15.77;;;5.20;58.70;;;;;;5038187;28;20049;-67
2024/01/13 03:18:52;;;;;;;49.50;15.88;;;5.20;58.70;;;;;;5031424;28;20053;-69
2024/01/13 03:21:21;;;;;;;40.40;13.88;;;5.30;59.30;;;;;;5030831;28;20115;-67
2024/01/13 03:23:51;;;;;;;58.85;16.80;;;5.30;58.70;;;;;;5027296;28;20131;-66
2024/01/13 03:26:19;;;;;;;44.40;17.75;;;5.30;58.60;;;;;;5031568;28;20426;-69
2024/01/13 03:28:49;;;;;;;55.33;17.40;;;5.30;58.60;;;;;;5026151;28;20114;-67
2024/01/13 03:31:17;;;;;;;52.20;17.80;;;5.20;58.50;;;;;;5041024;28;20482;-68
2024/01/13 03:33:46;;;;;;;64.32;19.10;;;5.20;58.50;;;;;;5025966;28;20749;-67
2024/01/13 03:36:17;;;;;;;70.00;16.50;;;5.10;58.50;;;;;;5027607;28;20061;-67
2024/01/13 03:38:47;;;;;;;42.10;16.92;;;5.10;58.50;;;;;;5029008;28;20048;-67
2024/01/13 03:41:18;;;;;;;69.47;20.13;;;5.10;58.70;;;;;;5037236;28;20053;-68
2024/01/13 03:43:47;;;;;;;61.83;16.45;;;5.10;58.70;;;;;;5031249;28;20807;-68
2024/01/13 03:46:17;;;;;;;43.40;14.68;;;5.10;58.80;;;;;;5028248;28;20289;-67
2024/01/13 03:48:45;;;;;;;61.00;17.67;;;5.10;58.80;;;;;;5031007;28;20053;-68
2024/01/13 03:51:14;;;;;;;40.63;14.07;;;5.10;58.70;;;;;;5030488;28;20057;-67
2024/01/13 03:53:42;;;;;;;39.55;14.10;;;5.10;58.80;;;;;;5050106;28;20386;-67
2024/01/13 03:56:11;;;;;;;38.00;17.73;;;5.10;58.70;;;;;;5010313;28;20053;-68
2024/01/13 03:58:40;;;;;;;47.88;15.35;;;5.10;58.70;;;;;;5027713;28;20055;-66
2024/01/13 04:01:09;;;;;;;48.30;15.85;;;5.00;58.60;;;;;;5029381;28;20048;-68
2024/01/13 04:03:40;;;;;;;58.67;17.92;;;5.00;58.60;;;;;;5050422;28;20141;-68
2024/01/13 04:06:08;;;;;;;58.80;15.77;;;5.00;58.70;;;;;;5030864;28;20057;-68
2024/01/13 04:08:38;;;;;;;57.30;17.02;;;5.00;58.60;;;;;;5034550;28;20052;-68
2024/01/13 04:11:11;;;;;;;44.78;19.30;;;4.90;58.60;;;;;;5043466;28;20478;-68
2024/01/13 04:13:39;;;;;;;46.60;18.77;;;4.80;58.60;;;;;;5044566;28;20419;-67
2024/01/13 04:16:10;;;;;;;47.08;15.05;;;4.80;58.80;;;;;;5025465;28;20049;-67
2024/01/13 04:18:40;;;;;;;57.95;16.02;;;4.80;58.70;;;;;;5034004;28;20071;-69
2024/01/13 04:21:09;;;;;;;51.00;16.13;;;4.80;58.80;;;;;;5034464;28;20057;-67
2024/01/13 04:23:50;;;;;;;41.50;11.68;;;4.80;58.80;;;;;;5034928;28;20075;-68
2024/01/13 04:26:20;;;;;;;49.13;14.45;;;4.70;58.70;;;;;;5033490;28;20061;-69
2024/01/13 04:28:48;;;;;;;44.35;13.07;;;4.70;58.80;;;;;;5046906;28;20457;-68
2024/01/13 04:31:16;;;;;;;34.78;12.02;;;4.70;58.80;;;;;;5035393;28;20048;-66
2024/01/13 04:33:46;;;;;;;41.70;14.20;;;4.70;58.80;;;;;;5048826;28;20125;-67
2024/01/13 04:36:15;;;;;;;54.15;18.30;;;4.70;58.90;;;;;;5024885;28;20123;-68
2024/01/13 04:38:44;;;;;;;60.35;19.08;;;4.70;58.90;;;;;;5036009;28;20133;-68
2024/01/13 04:41:12;;;;;;;48.72;17.05;;;4.70;59.50;;;;;;5032705;28;20084;-68
2024/01/13 04:43:41;;;;;;;45.53;15.70;;;4.70;59.00;;;;;;5039452;28;20057;-67
2024/01/13 04:46:10;;;;;;;43.42;13.38;;;4.80;59.00;;;;;;5032329;28;20060;-66
2024/01/13 04:48:39;;;;;;;49.92;15.07;;;4.80;58.90;;;;;;5038523;28;20052;-66
2024/01/13 04:51:10;;;;;;;38.45;12.82;;;4.80;58.90;;;;;;5044616;28;20542;-67
2024/01/13 04:53:38;;;;;;;46.60;16.02;;;4.80;59.10;;;;;;5035776;28;20063;-68
2024/01/13 04:56:07;;;;;;;33.63;11.00;;;4.90;58.90;;;;;;5031268;28;20064;-68
2024/01/13 04:58:35;;;;;;;46.40;13.32;;;4.90;58.90;;;;;;5041565;28;20484;-67
2024/01/13 05:01:03;;;;;;;37.42;12.48;;;4.90;58.80;;;;;;5040912;28;20057;-78
2024/01/13 05:03:32;;;;;;;51.67;13.80;;;4.90;58.80;;;;;;5040747;28;20065;-68
2024/01/13 05:06:02;;;;;;;43.88;13.25;;;4.90;58.80;;;;;;5029884;28;20053;-68
2024/01/13 05:08:32;;;;;;;58.92;12.90;;;4.90;58.80;;;;;;5047059;28;20052;-67
2024/01/13 05:11:01;;;;;;;62.55;15.82;;;4.80;58.50;;;;;;5042487;28;20163;-67
2024/01/13 05:13:29;;;;;;;35.53;13.27;;;4.80;58.70;;;;;;5053839;28;20052;-66
2024/01/13 05:15:58;;;;;;;43.90;14.00;;;4.70;58.60;;;;;;5034502;28;20063;-67
2024/01/13 05:18:26;;;;;;;41.78;13.10;;;4.70;58.80;;;;;;5041807;28;20456;-67
2024/01/13 05:20:55;;;;;;;60.72;16.90;;;4.70;58.80;;;;;;5044569;28;20134;-66
2024/01/13 05:23:23;;;;;;;42.85;11.82;;;4.60;58.60;;;;;;5051739;28;20049;-66
2024/01/13 05:25:53;;;;;;;33.45;12.07;;;4.60;58.80;;;;;;5043773;28;20053;-66
2024/01/13 05:28:21;;;;;;;64.75;15.07;;;4.60;58.70;;;;;;5044423;28;20040;-67
2024/01/13 05:30:49;;;;;;;50.22;13.20;;;4.50;58.60;;;;;;5037603;28;20040;-67
2024/01/13 05:33:18;;;;;;;38.35;12.48;;;4.50;58.80;;;;;;5037855;28;20057;-67
2024/01/13 05:35:46;;;;;;;45.05;15.05;;;4.50;58.90;;;;;;5039168;28;20080;-67
2024/01/13 05:38:15;;;;;;;25.58;9.35;;;4.50;58.90;;;;;;5033107;28;21193;-68
2024/01/13 05:40:44;;;;;;;26.02;10.18;;;4.50;58.80;;;;;;5041305;28;20052;-68
2024/01/13 05:43:14;;;;;;;30.52;10.93;;;4.40;58.70;;;;;;5040937;28;20056;-66
2024/01/13 05:45:43;;;;;;;18.95;11.90;;;4.30;59.30;;;;;;5042951;28;20067;-66
2024/01/13 05:48:11;;;;;;;28.58;10.32;;;4.30;58.80;;;;;;5045337;28;20106;-68
2024/01/13 05:50:40;;;;;;;28.13;11.02;;;4.30;58.90;;;;;;5038744;28;20080;-67
2024/01/13 05:53:08;;;;;;;37.65;11.82;;;4.50;59.30;;;;;;5034213;28;20155;-66
2024/01/13 05:55:36;;;;;;;57.10;14.77;;;4.30;58.80;;;;;;5043480;28;20468;-82
2024/01/13 05:58:05;;;;;;;47.20;13.48;;;4.30;58.70;;;;;;5042551;28;20060;-67
2024/01/13 06:00:35;;;;;;;36.17;11.88;;;4.20;58.60;;;;;;5037764;28;20136;-67
2024/01/13 06:03:04;;;;;;;34.28;11.05;;;4.10;58.50;;;;;;5042162;28;20425;-67
2024/01/13 06:05:32;;;;;;;24.75;9.82;;;4.00;58.50;;;;;;5046491;28;20490;-67
2024/01/13 06:08:01;;;;;;;38.30;12.45;;;3.80;58.50;;;;;;5032886;28;20134;-69
2024/01/13 06:10:30;;;;;;;38.17;11.65;;;3.80;58.70;;;;;;5042241;28;20049;-67
2024/01/13 06:12:59;;;;;;;31.63;11.75;;;3.70;58.70;;;;;;5050067;28;20131;-69
2024/01/13 06:15:28;;;;;;;40.55;13.85;;;3.70;58.80;;;;;;5043790;28;20152;-67
2024/01/13 06:17:59;;;;;;;47.75;12.95;;;3.70;58.80;;;;;;5044152;28;20127;-66
2024/01/13 06:20:27;;;;;;;37.17;13.00;;;3.60;58.80;;;;;;5053425;28;20156;-64
2024/01/13 06:22:56;;;;;;;44.83;12.88;;;3.60;58.80;;;;;;5038138;28;20057;-65
2024/01/13 06:25:24;;;;;;;45.55;11.15;;;3.60;58.80;;;;;;5044255;28;20045;-65
2024/01/13 06:27:53;;;;;;;75.10;22.15;;;3.50;59.40;;;;;;5037765;28;20048;-67
2024/01/13 06:30:21;;;;;;;56.28;17.60;;;3.50;58.90;;;;;;5032080;28;20057;-67
2024/01/13 06:32:50;;;;;;;54.63;13.45;;;3.50;59.40;;;;;;5046903;28;20128;-65
2024/01/13 06:35:20;;;;;;;39.22;10.45;;;3.50;59.10;;;;;;5035238;28;20077;-67
2024/01/13 06:37:48;;;;;;;32.70;10.20;;;3.40;59.00;;;;;;5035982;28;20160;-67
2024/01/13 06:40:17;;;;;;;30.98;10.85;;;3.40;58.90;;;;;;5026537;28;20501;-67
2024/01/13 06:42:45;;;;;;;31.65;11.93;;;3.30;58.90;;;;;;5037180;28;20049;-66
2024/01/13 06:45:14;;;;;;;37.40;11.77;;;3.30;59.00;;;;;;5039287;28;20131;-67
2024/01/13 06:47:43;;;;;;;38.47;10.43;;;3.30;59.10;;;;;;5048845;28;20064;-64
2024/01/13 06:50:11;;;;;;;50.90;12.18;;;3.30;59.50;;;;;;5032729;28;20141;-66
2024/01/13 06:52:41;;;;;;;30.15;13.52;;;3.40;59.70;;;;;;5048452;28;20065;-66
2024/01/13 06:55:10;;;;;;;41.22;14.32;;;3.50;59.30;;;;;;5036613;28;20921;-66
2024/01/13 06:57:38;;;;;;;30.02;12.13;;;3.70;59.30;;;;;;5039600;28;20067;-65
2024/01/13 07:00:08;;;;;;;38.45;13.82;;;3.80;59.30;;;;;;5035280;28;20060;-66
2024/01/13 07:02:38;;;;;;;39.17;13.30;;;3.90;59.20;;;;;;5033144;28;20048;-67
2024/01/13 07:05:10;;;;;;;44.92;14.07;;;4.00;59.20;;;;;;5035101;28;20056;-66
2024/01/13 07:07:38;;;;;;;39.58;10.23;;;4.00;59.00;;;;;;5039713;28;20068;-69
2024/01/13 07:10:09;;;;;;;33.00;12.85;;;4.10;59.00;;;;;;5043812;28;20084;-66
2024/01/13 07:12:38;;;;;;;34.53;12.68;;;4.20;59.00;;;;;;5061147;28;20094;-66
2024/01/13 07:15:07;;;;;;;48.75;17.45;;;4.10;58.90;;;;;;5028258;28;20152;-66
2024/01/13 07:17:36;;;;;;;37.17;13.07;;;4.20;59.00;;;;;;5036906;28;20084;-66
2024/01/13 07:20:05;;;;;;;59.55;13.90;;;4.30;59.10;;;;;;5041463;28;20071;-66
2024/01/13 07:22:34;;;;;;;45.17;11.70;;;4.40;59.10;;;;;;5038860;28;20126;-68
2024/01/13 07:25:03;;;;;;;46.08;10.63;;;4.50;59.10;;;;;;5036547;28;20067;-66
2024/01/13 07:27:32;;;;;;;51.45;12.55;;;4.50;59.00;;;;;;5035087;28;20127;-66
2024/01/13 07:30:01;;;;;;;38.58;11.38;;;4.60;59.00;;;;;;5048235;28;20059;-65
2024/01/13 07:32:30;;;;;;;49.30;13.45;;;4.60;58.90;;;;;;5050577;28;20057;-68
2024/01/13 07:34:57;;;;;;;58.55;14.18;;;4.60;58.80;;;;;;5033797;28;20529;-66
2024/01/13 07:37:26;;;;;;;47.88;14.02;;;4.70;58.80;;;;;;5040074;28;20061;-66
2024/01/13 07:39:54;;;;;;;48.17;16.05;;;4.70;58.80;;;;;;5035065;28;20153;-67
2024/01/13 07:42:23;;;;;;;36.28;16.23;;;4.70;58.70;;;;;;5030560;28;20421;-66
2024/01/13 07:44:53;;;;;;;47.42;13.07;;;4.70;58.80;;;;;;5036628;28;20048;-66
2024/01/13 07:47:21;;;;;;;40.13;13.32;;;4.70;58.80;;;;;;5060455;28;20067;-66
2024/01/13 07:49:50;;;;;;;41.92;13.57;;;4.70;58.70;;;;;;5032417;28;20253;-64
2024/01/13 07:52:18;;;;;;;48.42;12.68;;;4.70;58.70;;;;;;5030219;28;20534;-67
2024/01/13 07:54:46;;;;;;;47.53;15.23;;;4.70;58.70;;;;;;5041171;28;20516;-66
2024/01/13 07:57:15;;;;;;;25.48;12.55;;;4.70;58.70;;;;;;5042704;28;20421;-76
2024/01/13 07:59:43;;;;;;;36.25;11.13;;;4.70;58.70;;;;;;5036745;28;20056;-63
2024/01/13 08:02:15;;;;;;;41.65;12.95;;;4.70;58.70;;;;;;5030361;28;20068;-67
2024/01/13 08:04:44;;;;;;;29.73;11.13;;;4.70;58.60;;;;;;5035986;28;20118;-66
2024/01/13 08:07:16;;;;;;;35.33;12.65;;;4.70;58.80;;;;;;5036014;28;20056;-65
2024/01/13 08:09:45;;;;;;;40.72;15.15;;;4.70;58.80;;;;;;5034589;28;20061;-64
2024/01/13 08:12:14;;;;;;;29.60;11.43;;;4.80;58.80;;;;;;5030022;28;20049;-63
2024/01/13 08:14:42;;;;;;;30.08;11.80;;;4.80;59.10;;;;;;5035072;28;20056;-73
2024/01/13 08:17:12;;;;;;;29.75;12.40;;;4.90;58.90;;;;;;5042948;28;20510;-63
2024/01/13 08:19:41;;;;;;;29.83;10.95;;;4.90;58.90;;;;;;5037296;28;20103;-69
2024/01/13 08:22:09;;;;;;;28.92;11.20;;;4.90;58.80;;;;;;5024909;28;20495;-66
2024/01/13 08:24:38;;;;;;;41.72;11.45;;;5.00;58.80;;;;;;5045398;28;20048;-67
2024/01/13 08:27:07;;;;;;;44.50;12.45;;;5.00;58.80;;;;;;5037283;28;20057;-66
2024/01/13 08:29:36;;;;;;;32.22;11.43;;;5.10;58.90;;;;;;5044722;28;20136;-78
2024/01/13 08:32:04;;;;;;;44.47;11.25;;;5.30;59.00;;;;;;5034091;28;20071;-65
2024/01/13 08:34:34;;;;;;;35.53;12.15;;;5.50;59.10;;;;;;5046382;28;20136;-64
2024/01/13 08:37:03;;;;;;;27.20;9.88;;;5.70;58.90;;;;;;5051883;28;20144;-65
2024/01/13 08:39:32;;;;;;;62.33;10.57;;;5.80;58.70;;;;;;5039461;28;20549;-65
2024/01/13 08:42:00;;;;;;;32.60;10.55;;;6.00;58.90;;;;;;5047557;28;20053;-64
2024/01/13 08:44:28;;;;;;;29.60;11.90;;;6.10;58.30;;;;;;5036636;28;20071;-69
2024/01/13 08:46:57;;;;;;;58.85;17.33;;;6.00;57.90;;;;;;5044961;28;20052;-65
2024/01/13 08:49:28;;;;;;;20.13;8.98;;;5.80;58.40;;;;;;5038056;28;20060;-79
2024/01/13 08:52:02;;;;;;;50.75;12.75;;;5.50;57.70;;;;;;5050359;28;20118;-66
2024/01/13 08:54:31;;;;;;;35.55;8.45;;;5.20;57.80;;;;;;5049218;28;20059;-66
2024/01/13 08:56:59;;;;;;;19.75;7.70;;;5.00;57.90;;;;;;5053954;28;20053;-65
2024/01/13 08:59:28;;;;;;;64.88;9.05;;;4.80;58.70;;;;;;5044189;28;20106;-67
2024/01/13 09:01:57;;;;;;;27.50;11.00;;;4.70;58.40;;;;;;5039644;28;20045;-66
2024/01/13 09:04:26;;;;;;;16.08;6.80;;;4.60;58.50;;;;;;5036365;28;20052;-65
2024/01/13 09:06:54;;;;;;;53.80;12.95;;;4.50;58.60;;;;;;5037877;28;20056;-69
2024/01/13 09:09:24;;;;;;;44.72;11.35;;;4.50;58.80;;;;;;5039487;28;20049;-67
2024/01/13 09:11:52;;;;;;;24.80;10.48;;;4.50;59.10;;;;;;5049449;28;20052;-70
2024/01/13 09:14:21;;;;;;;19.35;6.90;;;4.50;59.60;;;;;;5038841;28;20170;-68
2024/01/13 09:16:49;;;;;;;12.35;6.40;;;4.60;60.10;;;;;;5039577;28;20594;-67
2024/01/13 09:19:17;;;;;;;19.92;7.32;;;4.60;59.40;;;;;;5043756;28;20057;-67
2024/01/13 09:21:46;;;;;;;44.35;11.93;;;4.60;59.40;;;;;;5038577;28;20052;-66
2024/01/13 09:24:16;;;;;;;17.98;6.30;;;4.80;60.20;;;;;;5033033;28;20572;-68
2024/01/13 09:26:48;;;;;;;24.60;8.98;;;4.90;60.50;;;;;;5039290;28;20076;-65
2024/01/13 09:29:22;;;;;;;24.25;6.57;;;5.10;60.80;;;;;;5035053;28;20677;-63
2024/01/13 09:31:52;;;;;;;30.50;9.32;;;5.30;61.10;;;;;;5037004;28;20069;-62
2024/01/13 09:34:21;;;;;;;28.40;7.50;;;5.50;61.10;;;;;;5039603;28;20061;-64
2024/01/13 09:36:50;;;;;;;35.78;10.07;;;5.70;61.40;;;;;;5037117;28;20048;-64
2024/01/13 09:39:21;;;;;;;44.15;10.80;;;6.00;61.80;;;;;;5036755;28;20079;-64
2024/01/13 09:41:54;;;;;;;25.08;8.82;;;6.30;61.90;;;;;;5053946;28;20127;-62
2024/01/13 09:44:25;;;;;;;16.88;6.88;;;6.70;62.10;;;;;;5010790;28;20780;-64
2024/01/13 09:46:56;;;;;;;28.77;8.85;;;7.00;62.10;;;;;;5019627;28;20053;-64
2024/01/13 09:49:27;;;;;;;21.25;8.82;;;7.30;62.20;;;;;;5015586;28;20059;-64
2024/01/13 09:51:58;;;;;;;54.72;8.90;;;7.80;62.10;;;;;;5023322;28;20061;-62
2024/01/13 09:54:27;;;;;;;28.02;8.23;;;8.30;61.50;;;;;;5008299;28;20156;-65
2024/01/13 09:56:59;;;;;;;86.63;14.70;;;8.80;60.90;;;;;;5034994;28;20049;-63
2024/01/13 09:59:29;;;;;;;62.28;10.70;;;9.40;60.00;;;;;;5013231;28;20547;-65
2024/01/13 10:02:01;;;;;;;44.80;9.77;;;10.20;59.20;;;;;;5016526;28;20049;-63
2024/01/13 10:04:31;;;;;;;46.55;11.65;;;11.00;57.90;;;;;;5031586;28;20503;-63
2024/01/13 10:06:59;;;;;;;47.13;12.63;;;11.60;56.80;;;;;;5022290;28;20061;-65
2024/01/13 10:09:28;;;;;;;20.35;7.88;;;12.10;55.80;;;;;;5017782;28;20068;-64
2024/01/13 10:12:07;;;;;;;28.25;9.98;;;12.60;55.00;;;;;;5016661;28;20060;-63
2024/01/13 10:14:39;;;;;;;28.80;10.75;;;12.80;54.00;;;;;;5028895;28;20568;-67
2024/01/13 10:17:11;;;;;;;65.38;13.30;;;13.20;54.00;;;;;;5018064;28;20053;-64
2024/01/13 10:19:42;;;;;;;44.78;11.68;;;13.50;53.30;;;;;;5017096;28;20058;-67
2024/01/13 10:22:15;;;;;;;48.92;11.50;;;13.80;52.90;;;;;;5010658;28;20490;-65
2024/01/13 10:24:44;;;;;;;39.13;11.25;;;14.20;52.50;;;;;;5023149;28;20126;-64
2024/01/13 10:27:14;;;;;;;49.15;11.57;;;14.60;52.10;;;;;;5019568;28;20050;-64
2024/01/13 10:29:44;;;;;;;27.25;9.15;;;15.00;51.50;;;;;;5008505;28;20146;-70
2024/01/13 10:32:17;;;;;;;36.03;9.95;;;15.30;50.70;;;;;;5013631;28;20140;-62
2024/01/13 10:34:47;;;;;;;53.33;11.48;;;15.50;51.00;;;;;;5025681;28;20053;-69
2024/01/13 10:37:16;;;;;;;40.38;12.55;;;15.60;50.00;;;;;;5012379;28;20061;-67
2024/01/13 10:39:49;;;;;;;49.47;11.25;;;15.70;49.60;;;;;;5034825;28;20689;-66
2024/01/13 10:42:21;;;;;;;45.70;11.80;;;15.80;49.60;;;;;;5039337;28;20057;-62
2024/01/13 10:44:56;;;;;;;50.42;10.98;;;16.00;49.40;;;;;;5061686;28;20075;-66
2024/01/13 10:47:30;;;;;;;59.85;13.30;;;16.10;48.70;;;;;;5075960;28;20414;-64
2024/01/13 10:49:59;;;;;;;36.20;12.05;;;16.20;48.50;;;;;;5055551;28;20142;-66
2024/01/13 10:52:33;;;;;;;37.35;10.77;;;16.30;48.40;;;;;;5055955;28;20131;-63
2024/01/13 10:55:04;;;;;;;111.13;17.45;;;16.10;47.70;;;;;;5060278;28;20118;-64
2024/01/13 10:57:37;;;;;;;34.80;10.70;;;15.70;47.80;;;;;;5059648;28;20133;-62
2024/01/13 11:00:10;;;;;;;65.47;12.55;;;15.50;48.00;;;;;;5049073;28;20143;-64
2024/01/13 11:02:40;;;;;;;41.95;12.02;;;15.20;47.80;;;;;;5070023;28;20053;-64
2024/01/13 11:05:10;;;;;;;50.65;14.85;;;14.90;48.00;;;;;;5073616;28;20052;-63
2024/01/13 11:07:40;;;;;;;49.10;11.85;;;14.60;48.00;;;;;;5056932;28;20066;-64
2024/01/13 11:10:14;;;;;;;113.88;16.13;;;14.30;48.10;;;;;;5060084;28;20101;-65
2024/01/13 11:12:49;;;;;;;39.95;10.60;;;14.00;48.30;;;;;;5059272;28;20459;-66
2024/01/13 11:15:26;;;;;;;57.55;11.60;;;13.50;48.30;;;;;;5060689;28;20083;-63
2024/01/13 11:17:55;;;;;;;53.92;12.20;;;12.90;48.60;;;;;;5060631;28;20044;-74
2024/01/13 11:20:25;;;;;;;46.58;11.65;;;12.40;49.30;;;;;;5052256;28;20084;-64
2024/01/13 11:22:58;;;;;;;28.85;10.98;;;11.90;49.80;;;;;;5059137;28;20132;-64
2024/01/13 11:25:28;;;;;;;34.88;12.15;;;11.50;50.30;;;;;;5057192;28;20561;-65
2024/01/13 11:28:04;;;;;;;23.25;10.88;;;11.00;50.50;;;;;;5067000;28;20135;-65
2024/01/13 11:30:37;;;;;;;71.72;13.68;;;10.40;50.70;;;;;;5058496;28;22363;-64
2024/01/13 11:33:07;;;;;;;43.50;12.85;;;9.80;51.40;;;;;;5063758;28;20286;-64
2024/01/13 11:35:35;;;;;;;38.40;11.98;;;9.10;52.00;;;;;;5071450;28;20079;-64
2024/01/13 11:38:07;;;;;;;54.33;12.57;;;8.60;52.70;;;;;;5052385;28;20095;-63
2024/01/13 11:40:36;;;;;;;76.65;15.15;;;8.10;53.20;;;;;;5044794;28;20136;-64
2024/01/13 11:43:22;;;;;;;46.88;11.75;;;7.80;53.70;;;;;;5043648;28;20075;-64
2024/01/13 11:45:52;;;;;;;29.08;12.93;;;7.50;54.20;;;;;;5043123;28;20056;-66
2024/01/13 11:48:41;;;;;;;50.25;15.45;;;7.20;54.50;;;;;;5035359;28;20643;-63
2024/01/13 11:51:13;;;;;;;37.80;13.40;;;7.10;55.00;;;;;;5034885;28;20056;-63
2024/01/13 11:53:44;;;;;;;48.22;16.38;;;6.90;55.00;;;;;;5045670;28;20051;-67
2024/01/13 11:56:14;;;;;;;91.75;16.60;;;6.80;55.10;;;;;;5031487;28;20048;-64
2024/01/13 11:58:44;;;;;;;51.33;17.33;;;6.70;55.40;;;;;;5039946;28;20503;-64
2024/01/13 12:01:13;;;;;;;39.60;15.00;;;6.60;55.50;;;;;;5056017;28;20403;-64
2024/01/13 12:03:43;;;;;;;48.97;18.10;;;6.60;55.70;;;;;;5047698;28;20117;-65
2024/01/13 12:06:13;;;;;;;73.40;17.95;;;6.50;55.70;;;;;;5040718;28;20059;-65
2024/01/13 12:08:43;;;;;;;65.75;19.25;;;6.50;55.80;;;;;;5047427;28;20514;-62
2024/01/13 12:11:12;;;;;;;84.53;17.35;;;6.50;55.80;;;;;;5043101;28;20204;-65
2024/01/13 12:13:40;;;;;;;46.33;14.48;;;6.50;56.00;;;;;;5038908;28;20476;-65
2024/01/13 12:16:10;;;;;;;47.78;15.00;;;6.50;56.00;;;;;;5031232;28;20081;-66
2024/01/13 12:18:38;;;;;;;36.08;13.55;;;6.50;56.00;;;;;;5044795;28;20151;-63
2024/01/13 12:21:08;;;;;;;46.05;16.85;;;6.50;56.00;;;;;;5056523;28;20055;-64
2024/01/13 12:23:37;;;;;;;45.00;16.50;;;6.50;56.00;;;;;;5039290;28;20136;-64
2024/01/13 12:26:06;;;;;;;42.47;17.17;;;6.50;56.20;;;;;;5036693;28;20064;-65
2024/01/13 12:28:40;;;;;;;38.70;12.82;;;6.40;55.80;;;;;;5037259;28;20171;-63
2024/01/13 12:31:11;;;;;;;59.13;16.60;;;6.40;56.00;;;;;;5035477;28;20084;-64
2024/01/13 12:33:39;;;;;;;43.15;15.95;;;6.40;56.00;;;;;;5039927;28;20061;-74
2024/01/13 12:36:12;;;;;;;59.15;15.80;;;6.40;56.10;;;;;;5033726;28;20056;-64
2024/01/13 12:38:42;;;;;;;39.60;13.57;;;6.40;56.00;;;;;;5049663;28;20064;-72
2024/01/13 12:41:10;;;;;;;37.25;11.05;;;6.40;56.00;;;;;;5036007;28;20469;-63
2024/01/13 12:43:39;;;;;;;31.35;11.73;;;6.30;56.00;;;;;;5051913;28;20044;-63
2024/01/13 12:46:11;;;;;;;36.40;11.63;;;6.30;56.10;;;;;;5035763;28;20059;-63
2024/01/13 12:48:40;;;;;;;44.95;13.80;;;6.30;56.00;;;;;;5062358;28;20041;-65